createdAt,value
2019-02-28T00:00:11.207Z,7.75
2019-02-28T00:01:12.782Z,7.73
2019-02-28T00:02:11.202Z,7.66
2019-02-28T00:03:11.184Z,7.75
2019-02-28T00:04:11.181Z,7.73
2019-02-28T00:05:11.179Z,7.72
2019-02-28T00:06:12.668Z,7.79
2019-02-28T00:07:11.156Z,7.72
2019-02-28T00:08:11.146Z,7.79
2019-02-28T00:09:11.144Z,7.73
2019-02-28T00:10:11.136Z,7.73
2019-02-28T00:11:11.130Z,7.75
2019-02-28T00:12:13.530Z,7.83
2019-02-28T00:13:11.112Z,7.85
2019-02-28T00:14:11.104Z,7.91
2019-02-28T00:15:11.100Z,7.85
2019-02-28T00:16:11.089Z,7.73
2019-02-28T00:17:11.087Z,7.75
2019-02-28T00:18:11.075Z,7.76
2019-02-28T00:19:11.068Z,7.79
2019-02-28T00:20:11.059Z,7.73
2019-02-28T00:21:11.056Z,7.82
2019-02-28T00:22:11.393Z,7.76
2019-02-28T00:23:11.038Z,7.79
2019-02-28T00:24:11.034Z,7.79
2019-02-28T00:25:11.042Z,7.82
2019-02-28T00:26:11.571Z,7.73
2019-02-28T00:27:11.010Z,7.79
2019-02-28T00:28:11.006Z,7.73
2019-02-28T00:29:10.996Z,7.70
2019-02-28T00:30:10.986Z,7.80
2019-02-28T00:31:14.393Z,7.76
2019-02-28T00:32:10.980Z,7.77
2019-02-28T00:33:10.966Z,7.73
2019-02-28T00:34:10.960Z,7.79
2019-02-28T00:35:13.509Z,7.80
2019-02-28T00:36:10.943Z,7.77
2019-02-28T00:37:10.937Z,7.69
2019-02-28T00:38:10.928Z,7.77
2019-02-28T00:39:10.931Z,7.77
2019-02-28T00:40:10.911Z,7.73
2019-02-28T00:41:10.908Z,7.69
2019-02-28T00:42:10.899Z,7.69
2019-02-28T00:43:10.893Z,7.67
2019-02-28T00:44:10.887Z,7.73
2019-02-28T00:45:10.876Z,7.72
2019-02-28T00:46:11.027Z,7.67
2019-02-28T00:47:10.864Z,7.75
2019-02-28T00:48:10.855Z,7.75
2019-02-28T00:49:10.846Z,7.76
2019-02-28T00:50:10.839Z,7.73
2019-02-28T00:51:10.833Z,7.70
2019-02-28T00:52:10.831Z,7.73
2019-02-28T00:53:10.815Z,7.76
2019-02-28T00:54:10.811Z,7.69
2019-02-28T00:55:10.803Z,7.66
2019-02-28T00:56:10.793Z,7.83
2019-02-28T00:57:10.790Z,7.79
2019-02-28T00:58:10.782Z,7.70
2019-02-28T00:59:10.775Z,7.76
2019-02-28T01:00:10.764Z,7.70
2019-02-28T01:01:11.542Z,7.70
2019-02-28T01:02:10.754Z,7.70
2019-02-28T01:03:10.745Z,7.76
2019-02-28T01:04:10.733Z,7.72
2019-02-28T01:05:10.730Z,7.77
2019-02-28T01:06:10.721Z,7.77
2019-02-28T01:07:13.294Z,7.75
2019-02-28T01:08:10.705Z,7.77
2019-02-28T01:09:10.697Z,7.75
2019-02-28T01:10:10.691Z,7.80
2019-02-28T01:11:13.228Z,7.72
2019-02-28T01:12:10.681Z,7.85
2019-02-28T01:13:10.669Z,7.76
2019-02-28T01:14:10.668Z,7.76
2019-02-28T01:15:10.773Z,7.83
2019-02-28T01:16:10.646Z,7.75
2019-02-28T01:17:10.644Z,7.75
2019-02-28T01:18:10.632Z,7.79
2019-02-28T01:19:10.626Z,7.77
2019-02-28T01:20:14.899Z,7.70
2019-02-28T01:21:10.610Z,7.82
2019-02-28T01:22:10.603Z,7.72
2019-02-28T01:23:10.597Z,7.69
2019-02-28T01:24:10.591Z,7.67
2019-02-28T01:25:10.586Z,7.70
2019-02-28T01:26:11.755Z,7.69
2019-02-28T01:27:10.565Z,7.85
2019-02-28T01:28:10.556Z,7.87
2019-02-28T01:29:10.550Z,7.88
2019-02-28T01:30:10.542Z,8.03
2019-02-28T01:31:11.663Z,8.00
2019-02-28T01:32:15.316Z,8.01
2019-02-28T01:33:10.519Z,8.03
2019-02-28T01:34:10.517Z,8.03
2019-02-28T01:35:10.505Z,8.00
2019-02-28T01:36:12.258Z,7.94
2019-02-28T01:37:10.490Z,7.97
2019-02-28T01:38:10.485Z,7.87
2019-02-28T01:39:10.475Z,7.95
2019-02-28T01:40:10.467Z,7.88
2019-02-28T01:41:11.196Z,7.91
2019-02-28T01:42:10.453Z,7.97
2019-02-28T01:43:10.447Z,7.95
2019-02-28T01:44:10.441Z,7.98
2019-02-28T01:45:11.006Z,7.87
2019-02-28T01:46:10.433Z,7.97
2019-02-28T01:47:10.415Z,7.98
2019-02-28T01:48:10.410Z,7.97
2019-02-28T01:49:10.399Z,7.97
2019-02-28T01:50:10.396Z,8.03
2019-02-28T01:51:10.386Z,7.90
2019-02-28T01:52:10.809Z,7.93
2019-02-28T01:53:10.369Z,7.95
2019-02-28T01:54:10.365Z,8.00
2019-02-28T01:55:10.356Z,8.05
2019-02-28T01:56:10.349Z,7.95
2019-02-28T01:57:10.339Z,7.98
2019-02-28T01:58:10.338Z,7.91
2019-02-28T01:59:10.326Z,7.94
2019-02-28T02:00:10.319Z,7.94
2019-02-28T02:01:10.306Z,7.91
2019-02-28T02:02:10.302Z,7.88
2019-02-28T02:03:10.295Z,7.85
2019-02-28T02:04:12.534Z,7.77
2019-02-28T02:05:10.280Z,7.77
2019-02-28T02:06:10.272Z,7.79
2019-02-28T02:07:10.266Z,7.76
2019-02-28T02:08:10.256Z,7.66
2019-02-28T02:09:11.067Z,7.75
2019-02-28T02:10:10.235Z,7.73
2019-02-28T02:11:10.233Z,7.73
2019-02-28T02:12:10.228Z,7.61
2019-02-28T02:13:10.224Z,7.56
2019-02-28T02:14:11.038Z,7.60
2019-02-28T02:15:10.203Z,7.69
2019-02-28T02:16:10.198Z,7.60
2019-02-28T02:17:10.191Z,7.58
2019-02-28T02:18:10.184Z,7.45
2019-02-28T02:19:10.175Z,7.57
2019-02-28T02:20:10.167Z,7.50
2019-02-28T02:21:10.163Z,7.54
2019-02-28T02:22:10.260Z,7.57
2019-02-28T02:23:10.144Z,7.54
2019-02-28T02:24:10.139Z,7.48
2019-02-28T02:25:10.133Z,7.53
2019-02-28T02:26:11.282Z,7.45
2019-02-28T02:27:10.120Z,7.43
2019-02-28T02:28:10.102Z,7.42
2019-02-28T02:29:10.104Z,7.33
2019-02-28T02:30:15.261Z,7.39
2019-02-28T02:31:10.084Z,7.45
2019-02-28T02:32:10.075Z,7.48
2019-02-28T02:33:13.683Z,7.36
2019-02-28T02:34:10.062Z,7.39
2019-02-28T02:35:10.054Z,7.39
2019-02-28T02:36:10.052Z,7.38
2019-02-28T02:37:10.039Z,7.32
2019-02-28T02:38:10.031Z,7.31
2019-02-28T02:39:16.396Z,7.31
2019-02-28T02:40:10.016Z,7.25
2019-02-28T02:41:10.009Z,7.28
2019-02-28T02:42:11.396Z,7.38
2019-02-28T02:43:09.993Z,7.33
2019-02-28T02:44:09.987Z,7.36
2019-02-28T02:45:09.980Z,7.39
2019-02-28T02:46:09.970Z,7.36
2019-02-28T02:47:09.963Z,7.39
2019-02-28T02:48:09.958Z,7.42
2019-02-28T02:49:09.944Z,7.35
2019-02-28T02:50:09.946Z,7.33
2019-02-28T02:51:11.118Z,7.29
2019-02-28T02:52:09.925Z,7.39
2019-02-28T02:53:09.911Z,7.24
2019-02-28T02:54:09.910Z,7.23
2019-02-28T02:55:09.901Z,7.32
2019-02-28T02:56:09.894Z,7.29
2019-02-28T02:57:13.873Z,7.21
2019-02-28T02:58:09.881Z,7.25
2019-02-28T02:59:09.871Z,7.25
2019-02-28T03:00:13.263Z,7.17
2019-02-28T03:01:09.857Z,7.23
2019-02-28T03:02:09.849Z,7.14
2019-02-28T03:03:09.843Z,7.21
2019-02-28T03:04:09.835Z,7.25
2019-02-28T03:05:09.830Z,7.21
2019-02-28T03:06:13.866Z,7.10
2019-02-28T03:07:09.812Z,7.20
2019-02-28T03:08:09.810Z,7.13
2019-02-28T03:09:11.063Z,7.13
2019-02-28T03:10:09.782Z,7.06
2019-02-28T03:11:09.779Z,7.14
2019-02-28T03:12:09.780Z,7.18
2019-02-28T03:13:09.762Z,7.06
2019-02-28T03:14:09.763Z,7.11
2019-02-28T03:15:09.748Z,7.13
2019-02-28T03:16:09.749Z,7.11
2019-02-28T03:17:11.513Z,7.07
2019-02-28T03:18:09.726Z,7.00
2019-02-28T03:19:09.716Z,7.10
2019-02-28T03:20:09.710Z,7.03
2019-02-28T03:21:09.703Z,7.03
2019-02-28T03:22:09.694Z,7.05
2019-02-28T03:23:09.690Z,7.10
2019-02-28T03:24:14.846Z,7.07
2019-02-28T03:25:09.674Z,7.11
2019-02-28T03:26:09.664Z,7.06
2019-02-28T03:27:09.659Z,7.10
2019-02-28T03:28:09.648Z,7.06
2019-02-28T03:29:09.646Z,7.13
2019-02-28T03:30:09.639Z,7.05
2019-02-28T03:31:14.142Z,7.05
2019-02-28T03:32:09.612Z,6.89
2019-02-28T03:33:23.932Z,6.93
2019-02-28T03:34:13.265Z,6.95
2019-02-28T03:35:09.591Z,7.05
2019-02-28T03:36:09.585Z,6.96
2019-02-28T03:37:09.575Z,6.96
2019-02-28T03:38:11.465Z,6.92
2019-02-28T03:39:09.560Z,6.92
2019-02-28T03:40:09.578Z,6.95
2019-02-28T03:41:16.102Z,6.96
2019-02-28T03:42:09.541Z,6.95
2019-02-28T03:43:09.527Z,6.97
2019-02-28T03:44:09.527Z,6.92
2019-02-28T03:45:09.514Z,6.96
2019-02-28T03:46:10.360Z,6.93
2019-02-28T03:47:09.519Z,6.97
2019-02-28T03:48:09.497Z,6.92
2019-02-28T03:49:11.393Z,6.84
2019-02-28T03:50:09.480Z,6.79
2019-02-28T03:51:09.464Z,6.74
2019-02-28T03:52:09.457Z,6.79
2019-02-28T03:53:09.448Z,6.78
2019-02-28T03:54:09.446Z,6.78
2019-02-28T03:55:09.431Z,6.84
2019-02-28T03:56:14.329Z,6.81
2019-02-28T03:57:09.423Z,6.79
2019-02-28T03:58:09.411Z,6.78
2019-02-28T03:59:09.403Z,6.79
2019-02-28T04:00:09.393Z,6.78
2019-02-28T04:01:10.377Z,6.70
2019-02-28T04:02:09.378Z,6.72
2019-02-28T04:03:09.372Z,6.63
2019-02-28T04:04:12.250Z,6.67
2019-02-28T04:05:09.360Z,6.72
2019-02-28T04:06:09.348Z,6.69
2019-02-28T04:07:15.709Z,6.70
2019-02-28T04:08:09.321Z,6.64
2019-02-28T04:09:09.325Z,6.64
2019-02-28T04:10:09.312Z,6.62
2019-02-28T04:11:09.311Z,6.69
2019-02-28T04:12:09.324Z,6.67
2019-02-28T04:13:09.289Z,6.63
2019-02-28T04:14:09.293Z,6.57
2019-02-28T04:15:10.212Z,6.60
2019-02-28T04:16:10.068Z,6.69
2019-02-28T04:17:09.264Z,6.63
2019-02-28T04:18:09.242Z,6.67
2019-02-28T04:19:09.240Z,6.72
2019-02-28T04:20:09.233Z,6.63
2019-02-28T04:21:10.746Z,6.59
2019-02-28T04:22:09.217Z,6.59
2019-02-28T04:23:09.207Z,6.69
2019-02-28T04:24:13.931Z,6.67
2019-02-28T04:25:09.201Z,6.67
2019-02-28T04:26:09.188Z,6.62
2019-02-28T04:27:09.177Z,6.62
2019-02-28T04:28:09.168Z,6.62
2019-02-28T04:29:09.173Z,6.66
2019-02-28T04:30:09.149Z,6.62
2019-02-28T04:31:09.152Z,6.49
2019-02-28T04:32:09.135Z,6.59
2019-02-28T04:33:09.128Z,6.51
2019-02-28T04:34:13.068Z,6.62
2019-02-28T04:35:09.111Z,6.57
2019-02-28T04:36:09.104Z,6.60
2019-02-28T04:37:09.719Z,6.60
2019-02-28T04:38:09.093Z,6.51
2019-02-28T04:39:09.073Z,6.54
2019-02-28T04:40:09.071Z,6.59
2019-02-28T04:41:09.065Z,6.57
2019-02-28T04:42:09.053Z,6.57
2019-02-28T04:43:10.103Z,6.52
2019-02-28T04:44:09.050Z,6.51
2019-02-28T04:45:09.029Z,6.52
2019-02-28T04:46:09.023Z,6.45
2019-02-28T04:47:09.020Z,6.44
2019-02-28T04:48:13.610Z,6.41
2019-02-28T04:49:08.994Z,6.49
2019-02-28T04:50:08.990Z,6.46
2019-02-28T04:51:08.981Z,6.38
2019-02-28T04:52:11.837Z,6.38
2019-02-28T04:53:08.986Z,6.49
2019-02-28T04:54:08.955Z,6.28
2019-02-28T04:55:08.948Z,6.42
2019-02-28T04:56:11.536Z,6.31
2019-02-28T04:57:08.933Z,6.36
2019-02-28T04:58:08.923Z,6.41
2019-02-28T04:59:08.915Z,6.33
2019-02-28T05:00:08.907Z,6.38
2019-02-28T05:01:09.231Z,6.49
2019-02-28T05:02:08.891Z,6.51
2019-02-28T05:03:08.882Z,6.49
2019-02-28T05:04:08.872Z,6.51
2019-02-28T05:05:12.173Z,6.56
2019-02-28T05:06:08.870Z,6.54
2019-02-28T05:07:08.849Z,6.56
2019-02-28T05:08:08.840Z,6.59
2019-02-28T05:09:10.736Z,6.56
2019-02-28T05:10:08.824Z,6.57
2019-02-28T05:11:08.818Z,6.51
2019-02-28T05:12:08.806Z,6.57
2019-02-28T05:13:11.395Z,6.57
2019-02-28T05:14:08.790Z,6.54
2019-02-28T05:15:08.782Z,6.54
2019-02-28T05:16:09.305Z,6.57
2019-02-28T05:17:08.765Z,6.42
2019-02-28T05:18:08.760Z,6.56
2019-02-28T05:19:08.751Z,6.57
2019-02-28T05:20:11.033Z,6.59
2019-02-28T05:21:08.733Z,6.70
2019-02-28T05:22:08.725Z,6.63
2019-02-28T05:23:08.721Z,6.74
2019-02-28T05:24:08.743Z,6.64
2019-02-28T05:25:08.702Z,6.72
2019-02-28T05:26:08.691Z,6.77
2019-02-28T05:27:08.683Z,6.69
2019-02-28T05:28:08.674Z,6.60
2019-02-28T05:29:11.896Z,6.70
2019-02-28T05:30:08.657Z,6.70
2019-02-28T05:31:08.650Z,6.74
2019-02-28T05:32:08.646Z,6.72
2019-02-28T05:33:08.633Z,6.74
2019-02-28T05:34:08.628Z,6.70
2019-02-28T05:35:08.618Z,6.75
2019-02-28T05:36:08.609Z,6.77
2019-02-28T05:37:12.131Z,6.77
2019-02-28T05:38:08.592Z,6.84
2019-02-28T05:39:08.583Z,6.82
2019-02-28T05:40:08.574Z,6.72
2019-02-28T05:41:08.566Z,6.78
2019-02-28T05:42:08.562Z,6.81
2019-02-28T05:43:08.549Z,6.87
2019-02-28T05:44:08.541Z,6.77
2019-02-28T05:45:11.421Z,6.75
2019-02-28T05:46:08.528Z,6.82
2019-02-28T05:47:08.518Z,6.78
2019-02-28T05:48:08.507Z,6.78
2019-02-28T05:49:08.982Z,6.75
2019-02-28T05:50:08.491Z,6.77
2019-02-28T05:51:08.482Z,6.82
2019-02-28T05:52:08.477Z,6.70
2019-02-28T05:53:09.334Z,6.75
2019-02-28T05:54:08.457Z,6.60
2019-02-28T05:55:08.449Z,6.64
2019-02-28T05:56:08.444Z,6.63
2019-02-28T05:57:08.940Z,6.69
2019-02-28T05:58:08.423Z,6.66
2019-02-28T05:59:08.417Z,6.67
2019-02-28T06:00:08.409Z,6.60
2019-02-28T06:01:08.808Z,6.67
2019-02-28T06:02:08.392Z,6.69
2019-02-28T06:03:08.383Z,6.67
2019-02-28T06:04:08.373Z,6.64
2019-02-28T06:05:11.650Z,6.66
2019-02-28T06:06:08.357Z,6.66
2019-02-28T06:07:09.428Z,6.63
2019-02-28T06:08:08.341Z,6.62
2019-02-28T06:09:10.323Z,6.72
2019-02-28T06:10:08.326Z,6.69
2019-02-28T06:11:08.321Z,6.66
2019-02-28T06:12:09.556Z,6.74
2019-02-28T06:13:08.300Z,6.77
2019-02-28T06:14:08.296Z,6.87
2019-02-28T06:15:08.285Z,6.95
2019-02-28T06:16:11.193Z,6.96
2019-02-28T06:17:08.269Z,6.95
2019-02-28T06:18:08.259Z,6.93
2019-02-28T06:19:09.088Z,6.89
2019-02-28T06:20:08.246Z,7.07
2019-02-28T06:21:10.120Z,7.15
2019-02-28T06:22:08.224Z,7.20
2019-02-28T06:23:09.464Z,7.18
2019-02-28T06:24:08.207Z,7.20
2019-02-28T06:25:08.199Z,7.23
2019-02-28T06:26:08.190Z,7.21
2019-02-28T06:27:08.186Z,7.25
2019-02-28T06:28:08.213Z,7.25
2019-02-28T06:29:08.168Z,7.21
2019-02-28T06:30:08.842Z,7.20
2019-02-28T06:31:08.149Z,7.18
2019-02-28T06:32:08.147Z,7.28
2019-02-28T06:33:08.132Z,7.24
2019-02-28T06:34:08.615Z,7.23
2019-02-28T06:35:08.116Z,7.24
2019-02-28T06:36:08.113Z,7.24
2019-02-28T06:37:08.102Z,7.24
2019-02-28T06:38:08.093Z,7.32
2019-02-28T06:39:08.090Z,7.31
2019-02-28T06:40:08.074Z,7.36
2019-02-28T06:41:08.676Z,7.38
2019-02-28T06:42:08.057Z,7.33
2019-02-28T06:43:08.200Z,7.36
2019-02-28T06:44:08.043Z,7.47
2019-02-28T06:45:08.036Z,7.39
2019-02-28T06:46:08.714Z,7.45
2019-02-28T06:47:08.017Z,7.38
2019-02-28T06:48:08.013Z,7.42
2019-02-28T06:49:08.003Z,7.42
2019-02-28T06:50:07.994Z,7.45
2019-02-28T06:51:07.984Z,7.50
2019-02-28T06:52:07.982Z,7.57
2019-02-28T06:53:07.969Z,7.53
2019-02-28T06:54:08.777Z,7.54
2019-02-28T06:55:07.954Z,7.56
2019-02-28T06:56:07.945Z,7.53
2019-02-28T06:57:07.935Z,7.54
2019-02-28T06:58:07.928Z,7.57
2019-02-28T06:59:07.921Z,7.56
2019-02-28T07:00:10.376Z,7.61
2019-02-28T07:01:07.909Z,7.60
2019-02-28T07:02:08.944Z,7.63
2019-02-28T07:03:07.890Z,7.60
2019-02-28T07:04:07.878Z,7.63
2019-02-28T07:05:07.872Z,7.72
2019-02-28T07:06:07.866Z,7.70
2019-02-28T07:07:10.252Z,7.69
2019-02-28T07:08:07.845Z,7.76
2019-02-28T07:09:07.841Z,7.70
2019-02-28T07:10:09.700Z,7.79
2019-02-28T07:11:07.825Z,7.80
2019-02-28T07:12:07.815Z,7.90
2019-02-28T07:13:07.809Z,7.88
2019-02-28T07:14:12.956Z,7.91
2019-02-28T07:15:07.790Z,8.00
2019-02-28T07:16:07.794Z,7.87
2019-02-28T07:17:10.740Z,8.03
2019-02-28T07:18:07.767Z,8.05
2019-02-28T07:19:07.757Z,7.98
2019-02-28T07:20:09.595Z,8.03
2019-02-28T07:21:08.605Z,8.08
2019-02-28T07:22:07.734Z,8.18
2019-02-28T07:23:07.727Z,8.06
2019-02-28T07:24:07.725Z,8.06
2019-02-28T07:25:09.418Z,8.15
2019-02-28T07:26:07.702Z,8.06
2019-02-28T07:27:07.696Z,8.09
2019-02-28T07:28:07.693Z,8.19
2019-02-28T07:29:11.060Z,8.13
2019-02-28T07:30:07.674Z,8.10
2019-02-28T07:31:07.664Z,8.13
2019-02-28T07:32:07.655Z,8.23
2019-02-28T07:33:10.579Z,8.16
2019-02-28T07:34:07.639Z,8.16
2019-02-28T07:35:07.630Z,8.27
2019-02-28T07:36:09.595Z,8.28
2019-02-28T07:37:07.617Z,8.27
2019-02-28T07:38:07.609Z,8.24
2019-02-28T07:39:07.608Z,8.33
2019-02-28T07:40:07.589Z,8.31
2019-02-28T07:41:07.589Z,8.36
2019-02-28T07:42:07.577Z,8.36
2019-02-28T07:43:12.112Z,8.36
2019-02-28T07:44:07.560Z,8.36
2019-02-28T07:45:07.552Z,8.38
2019-02-28T07:46:08.734Z,8.38
2019-02-28T07:47:07.539Z,8.42
2019-02-28T07:48:07.529Z,8.44
2019-02-28T07:49:07.517Z,8.49
2019-02-28T07:50:07.716Z,8.49
2019-02-28T07:51:07.508Z,8.51
2019-02-28T07:52:07.498Z,8.48
2019-02-28T07:53:08.833Z,8.58
2019-02-28T07:54:07.482Z,8.63
2019-02-28T07:55:07.476Z,8.56
2019-02-28T07:56:07.900Z,8.48
2019-02-28T07:57:07.470Z,8.51
2019-02-28T07:58:07.456Z,8.61
2019-02-28T07:59:07.463Z,8.61
2019-02-28T08:00:07.436Z,8.66
2019-02-28T08:01:07.430Z,8.71
2019-02-28T08:02:07.428Z,8.69
2019-02-28T08:03:07.413Z,8.60
2019-02-28T08:04:07.406Z,8.69
2019-02-28T08:05:07.416Z,8.71
2019-02-28T08:06:07.392Z,8.82
2019-02-28T08:07:07.385Z,8.81
2019-02-28T08:08:07.381Z,8.79
2019-02-28T08:09:07.372Z,8.82
2019-02-28T08:10:07.362Z,8.82
2019-02-28T08:11:07.406Z,8.81
2019-02-28T08:12:07.345Z,8.82
2019-02-28T08:13:07.340Z,8.79
2019-02-28T08:14:09.204Z,8.85
2019-02-28T08:15:07.323Z,8.84
2019-02-28T08:16:07.315Z,8.82
2019-02-28T08:17:08.945Z,8.76
2019-02-28T08:18:07.298Z,8.81
2019-02-28T08:19:07.297Z,8.91
2019-02-28T08:20:07.285Z,8.95
2019-02-28T08:21:08.739Z,8.95
2019-02-28T08:22:07.271Z,8.89
2019-02-28T08:23:07.266Z,9.00
2019-02-28T08:24:07.260Z,8.97
2019-02-28T08:25:08.600Z,9.04
2019-02-28T08:26:07.252Z,9.06
2019-02-28T08:27:07.233Z,8.95
2019-02-28T08:28:07.227Z,9.00
2019-02-28T08:29:10.117Z,9.00
2019-02-28T08:30:07.209Z,9.06
2019-02-28T08:31:07.202Z,9.08
2019-02-28T08:32:08.227Z,9.00
2019-02-28T08:33:07.186Z,9.00
2019-02-28T08:34:07.182Z,9.14
2019-02-28T08:35:07.174Z,9.14
2019-02-28T08:36:11.402Z,9.11
2019-02-28T08:37:07.157Z,9.19
2019-02-28T08:38:07.155Z,9.13
2019-02-28T08:39:08.855Z,9.22
2019-02-28T08:40:07.135Z,9.22
2019-02-28T08:41:07.128Z,9.14
2019-02-28T08:42:07.120Z,9.14
2019-02-28T08:43:07.124Z,9.22
2019-02-28T08:44:07.107Z,9.25
2019-02-28T08:45:07.099Z,9.23
2019-02-28T08:46:10.782Z,9.25
2019-02-28T08:47:07.083Z,9.31
2019-02-28T08:48:07.076Z,9.23
2019-02-28T08:49:07.390Z,9.34
2019-02-28T08:50:07.062Z,9.36
2019-02-28T08:51:07.058Z,9.36
2019-02-28T08:52:07.051Z,9.48
2019-02-28T08:53:07.043Z,9.54
2019-02-28T08:54:07.034Z,9.47
2019-02-28T08:55:09.181Z,9.59
2019-02-28T08:56:07.019Z,9.59
2019-02-28T08:57:07.010Z,9.55
2019-02-28T08:58:07.008Z,9.50
2019-02-28T08:59:11.775Z,9.55
2019-02-28T09:00:06.989Z,9.65
2019-02-28T09:01:06.982Z,9.61
2019-02-28T09:02:06.977Z,9.69
2019-02-28T09:03:06.969Z,9.74
2019-02-28T09:04:06.961Z,9.74
2019-02-28T09:05:06.954Z,9.77
2019-02-28T09:06:07.506Z,9.84
2019-02-28T09:07:06.941Z,9.84
2019-02-28T09:08:06.933Z,9.86
2019-02-28T09:09:06.923Z,9.95
2019-02-28T09:10:11.720Z,9.95
2019-02-28T09:11:06.913Z,9.97
2019-02-28T09:12:06.906Z,9.83
2019-02-28T09:13:08.721Z,9.87
2019-02-28T09:14:06.891Z,9.94
2019-02-28T09:15:06.884Z,9.98
2019-02-28T09:16:06.877Z,9.98
2019-02-28T09:17:06.869Z,10.01
2019-02-28T09:18:07.403Z,10.04
2019-02-28T09:19:06.856Z,10.13
2019-02-28T09:20:07.531Z,10.13
2019-02-28T09:21:06.844Z,10.22
2019-02-28T09:22:06.837Z,10.23
2019-02-28T09:23:06.828Z,10.25
2019-02-28T09:24:09.460Z,10.31
2019-02-28T09:25:06.819Z,10.28
2019-02-28T09:26:06.810Z,10.37
2019-02-28T09:27:06.804Z,10.41
2019-02-28T09:28:06.794Z,10.38
2019-02-28T09:29:06.790Z,10.46
2019-02-28T09:30:06.782Z,10.41
2019-02-28T09:31:06.779Z,10.37
2019-02-28T09:32:06.768Z,10.38
2019-02-28T09:33:06.764Z,10.42
2019-02-28T09:34:06.755Z,10.53
2019-02-28T09:35:12.256Z,10.74
2019-02-28T09:36:06.743Z,10.72
2019-02-28T09:37:06.735Z,10.82
2019-02-28T09:38:13.008Z,10.89
2019-02-28T09:39:06.723Z,10.89
2019-02-28T09:40:06.720Z,10.89
2019-02-28T09:41:06.710Z,10.82
2019-02-28T09:42:06.706Z,10.84
2019-02-28T09:43:06.697Z,10.76
2019-02-28T09:44:07.166Z,10.86
2019-02-28T09:45:07.668Z,10.84
2019-02-28T09:46:06.675Z,10.90
2019-02-28T09:47:06.671Z,10.89
2019-02-28T09:48:06.666Z,10.96
2019-02-28T09:49:11.981Z,10.92
2019-02-28T09:50:06.653Z,10.89
2019-02-28T09:51:06.649Z,10.92
2019-02-28T09:52:07.324Z,10.94
2019-02-28T09:53:06.632Z,10.96
2019-02-28T09:54:06.627Z,10.96
2019-02-28T09:55:06.626Z,10.94
2019-02-28T09:56:09.281Z,10.93
2019-02-28T09:57:06.607Z,10.94
2019-02-28T09:58:06.605Z,10.94
2019-02-28T09:59:06.596Z,10.92
2019-02-28T10:00:11.627Z,11.00
2019-02-28T10:01:06.583Z,11.05
2019-02-28T10:02:08.413Z,11.08
2019-02-28T10:03:06.895Z,11.04
2019-02-28T10:04:06.564Z,11.15
2019-02-28T10:05:07.560Z,11.18
2019-02-28T10:06:06.556Z,11.23
2019-02-28T10:07:06.548Z,11.27
2019-02-28T10:08:07.177Z,11.26
2019-02-28T10:09:08.771Z,11.22
2019-02-28T10:10:06.531Z,11.17
2019-02-28T10:11:06.525Z,11.19
2019-02-28T10:12:07.823Z,11.23
2019-02-28T10:13:06.512Z,11.32
2019-02-28T10:14:06.509Z,11.26
2019-02-28T10:15:07.467Z,11.22
2019-02-28T10:16:06.494Z,11.23
2019-02-28T10:17:06.486Z,11.29
2019-02-28T10:18:06.509Z,11.26
2019-02-28T10:19:06.474Z,11.25
2019-02-28T10:20:06.468Z,11.23
2019-02-28T10:21:06.461Z,11.11
2019-02-28T10:22:06.458Z,11.23
2019-02-28T10:23:06.450Z,11.08
2019-02-28T10:24:06.441Z,11.17
2019-02-28T10:25:06.574Z,11.14
2019-02-28T10:26:06.428Z,11.18
2019-02-28T10:27:06.424Z,11.15
2019-02-28T10:28:06.418Z,11.08
2019-02-28T10:29:07.572Z,11.11
2019-02-28T10:30:06.404Z,11.12
2019-02-28T10:31:06.422Z,11.12
2019-02-28T10:32:08.956Z,11.14
2019-02-28T10:33:06.388Z,11.17
2019-02-28T10:34:06.388Z,11.25
2019-02-28T10:35:06.379Z,11.35
2019-02-28T10:36:09.239Z,11.19
2019-02-28T10:37:06.363Z,11.30
2019-02-28T10:38:06.358Z,11.25
2019-02-28T10:39:09.047Z,11.35
2019-02-28T10:40:06.345Z,11.32
2019-02-28T10:41:06.340Z,11.40
2019-02-28T10:42:06.334Z,11.33
2019-02-28T10:43:06.329Z,11.44
2019-02-28T10:44:06.319Z,11.44
2019-02-28T10:45:07.011Z,11.44
2019-02-28T10:46:06.310Z,11.43
2019-02-28T10:47:06.301Z,11.40
2019-02-28T10:48:06.297Z,11.36
2019-02-28T10:49:06.291Z,11.35
2019-02-28T10:50:06.286Z,11.19
2019-02-28T10:51:13.191Z,11.30
2019-02-28T10:52:06.273Z,11.41
2019-02-28T10:53:06.341Z,11.36
2019-02-28T10:54:06.262Z,11.37
2019-02-28T10:55:06.256Z,11.35
2019-02-28T10:56:06.249Z,11.43
2019-02-28T10:57:07.076Z,11.43
2019-02-28T10:58:06.238Z,11.65
2019-02-28T10:59:06.233Z,11.59
2019-02-28T11:00:06.227Z,11.60
2019-02-28T11:01:08.724Z,11.73
2019-02-28T11:02:06.213Z,11.84
2019-02-28T11:03:06.210Z,11.84
2019-02-28T11:04:07.482Z,11.91
2019-02-28T11:05:07.936Z,11.88
2019-02-28T11:06:06.191Z,11.88
2019-02-28T11:07:06.185Z,11.99
2019-02-28T11:08:06.178Z,11.87
2019-02-28T11:09:06.174Z,11.87
2019-02-28T11:10:06.167Z,11.80
2019-02-28T11:11:07.401Z,11.69
2019-02-28T11:12:06.155Z,11.70
2019-02-28T11:13:06.153Z,11.78
2019-02-28T11:14:06.147Z,11.86
2019-02-28T11:15:06.139Z,11.83
2019-02-28T11:16:06.132Z,11.86
2019-02-28T11:17:11.392Z,11.88
2019-02-28T11:18:09.766Z,11.97
2019-02-28T11:19:06.117Z,12.07
2019-02-28T11:20:06.113Z,12.10
2019-02-28T11:21:06.104Z,12.13
2019-02-28T11:22:06.104Z,12.21
2019-02-28T11:23:07.615Z,12.28
2019-02-28T11:24:06.108Z,12.28
2019-02-28T11:25:06.079Z,12.42
2019-02-28T11:26:06.401Z,12.45
2019-02-28T11:27:06.071Z,12.40
2019-02-28T11:28:06.066Z,12.40
2019-02-28T11:29:06.063Z,12.46
2019-02-28T11:30:07.386Z,12.40
2019-02-28T11:31:06.053Z,12.40
2019-02-28T11:32:06.046Z,12.53
2019-02-28T11:33:06.039Z,12.58
2019-02-28T11:34:06.030Z,12.53
2019-02-28T11:35:06.026Z,12.36
2019-02-28T11:36:07.414Z,12.31
2019-02-28T11:37:08.983Z,12.24
2019-02-28T11:38:06.008Z,12.22
2019-02-28T11:39:06.006Z,12.07
2019-02-28T11:40:08.548Z,12.21
2019-02-28T11:41:05.993Z,12.29
2019-02-28T11:42:05.987Z,12.27
2019-02-28T11:43:05.987Z,12.28
2019-02-28T11:44:05.977Z,12.06
2019-02-28T11:45:05.972Z,12.15
2019-02-28T11:46:05.968Z,12.10
2019-02-28T11:47:08.435Z,12.13
2019-02-28T11:48:05.956Z,12.07
2019-02-28T11:49:05.949Z,12.07
2019-02-28T11:50:07.769Z,12.09
2019-02-28T11:51:05.939Z,12.06
2019-02-28T11:52:05.935Z,12.21
2019-02-28T11:53:06.085Z,12.21
2019-02-28T11:54:05.922Z,12.27
2019-02-28T11:55:05.918Z,12.37
2019-02-28T11:56:05.912Z,12.32
2019-02-28T11:57:06.896Z,12.29
2019-02-28T11:58:05.902Z,12.28
2019-02-28T11:59:05.898Z,12.31
2019-02-28T12:00:05.891Z,12.43
2019-02-28T12:01:10.025Z,12.42
2019-02-28T12:02:05.881Z,12.42
2019-02-28T12:03:06.023Z,12.55
2019-02-28T12:04:05.867Z,12.55
2019-02-28T12:05:05.867Z,12.58
2019-02-28T12:06:06.897Z,12.68
2019-02-28T12:07:05.854Z,12.65
2019-02-28T12:08:09.232Z,12.43
2019-02-28T12:09:05.841Z,12.49
2019-02-28T12:10:05.836Z,12.42
2019-02-28T12:11:05.835Z,12.50
2019-02-28T12:12:07.352Z,12.67
2019-02-28T12:13:05.822Z,12.61
2019-02-28T12:14:06.382Z,12.72
2019-02-28T12:15:06.739Z,12.70
2019-02-28T12:16:05.802Z,12.76
2019-02-28T12:17:05.799Z,12.83
2019-02-28T12:18:05.797Z,12.86
2019-02-28T12:19:05.795Z,12.83
2019-02-28T12:20:05.783Z,12.83
2019-02-28T12:21:05.777Z,12.83
2019-02-28T12:22:05.774Z,12.78
2019-02-28T12:23:05.771Z,12.80
2019-02-28T12:24:05.765Z,12.83
2019-02-28T12:25:07.652Z,12.80
2019-02-28T12:26:05.754Z,12.70
2019-02-28T12:27:05.749Z,12.80
2019-02-28T12:28:06.729Z,12.76
2019-02-28T12:29:05.738Z,12.78
2019-02-28T12:30:05.731Z,12.72
2019-02-28T12:31:05.728Z,12.73
2019-02-28T12:32:08.063Z,12.64
2019-02-28T12:33:05.711Z,12.70
2019-02-28T12:34:05.713Z,12.75
2019-02-28T12:35:05.709Z,12.76
2019-02-28T12:36:05.703Z,12.78
2019-02-28T12:37:05.697Z,12.72
2019-02-28T12:38:05.695Z,12.72
2019-02-28T12:39:05.688Z,12.78
2019-02-28T12:40:07.419Z,12.87
2019-02-28T12:41:05.680Z,12.95
2019-02-28T12:42:05.672Z,12.93
2019-02-28T12:43:08.778Z,12.90
2019-02-28T12:44:05.667Z,12.87
2019-02-28T12:45:05.660Z,12.90
2019-02-28T12:46:05.656Z,12.93
2019-02-28T12:47:06.511Z,13.01
2019-02-28T12:48:05.641Z,12.94
2019-02-28T12:49:05.642Z,12.93
2019-02-28T12:50:05.633Z,12.94
2019-02-28T12:51:06.199Z,12.85
2019-02-28T12:52:05.621Z,12.98
2019-02-28T12:53:05.618Z,12.98
2019-02-28T12:54:05.618Z,12.94
2019-02-28T12:55:05.611Z,12.90
2019-02-28T12:56:05.602Z,12.87
2019-02-28T12:57:05.600Z,12.93
2019-02-28T12:58:05.594Z,12.95
2019-02-28T12:59:05.587Z,13.00
2019-02-28T13:00:05.602Z,13.00
2019-02-28T13:01:05.579Z,12.94
2019-02-28T13:02:08.469Z,12.97
2019-02-28T13:03:05.570Z,13.08
2019-02-28T13:04:05.563Z,13.05
2019-02-28T13:05:08.502Z,13.11
2019-02-28T13:06:05.557Z,13.13
2019-02-28T13:07:05.553Z,13.30
2019-02-28T13:08:06.022Z,13.28
2019-02-28T13:09:05.541Z,13.12
2019-02-28T13:10:05.566Z,13.16